VATSIM Germany Forum

Zurück   VATSIM Germany Forum > Flight Simulator > Prepar3D

Prepar3D Alles rund um den Prepar3D Flugsimulator von Lockheed Martin

Antwort
 
LinkBack Themen-Optionen Ansicht
Alt 2017-12-14, 13:53   #1 (permalink)
 
Registriert seit: 2015-11-21
Ort: Penzberg
Beiträge: 125
Danke erteilt: 10
23 Danksagungen in 19 Beiträgen erhalten
Standard Abweichung Wetterdaten im ASN zu Vatsim

Servus,

mir ist seit einigen Tagen aufgefallen das die Wetter-Daten die im ATIS oder via diversen Programmen abgerufen werden erheblich von den Wetterdaten im ASN abweichen.

Genauer: Gestern in EDDW (genaue werte hab ich nicht mehr im Kopf)
ATIS: QNH 098 Wind ca. 210/10 (Bitte verbessern wenn ich hier Falsch liege)
ASN: QNH 1011 Wind ca. 310/13

Ich habe zwar im ASN den Haken für das Vatsim Wetter nicht drin aber ich frage mich woher diese enormen Abweichungen kommen.
Das selbe habe ich in EDDL und LOWW beobachtet.

Oft ist mir aufgefallen (hier hatte ich den Hacken bei Vatsimwetter noch drin) das hier laut ASN eine VATSIM injection erstellt wurde.
Warum ist das so, und warum wird nicht das aktuelle Wetter vor Ort genommen?

Grüße Bernhard
__________________
Bernhard Zuerr ist offline   Mit Zitat antworten
Alt 2017-12-14, 14:48   #2 (permalink)
 
Benutzerbild von Andreas Fuchs
 
Registriert seit: 2002-05-29
Alter: 42
Beiträge: 16.992
Danke erteilt: 10.596
22.093 Danksagungen in 5.989 Beiträgen erhalten
Standard

Hallo Bernhard,

eine Uhrzeit wäre noch gut.

Real hat EDDW gestern folgende METARs ins System eingespeist:
METAR EDDW 132150Z 17015KT 9999 BKN013 04/02 Q0985 R88/290095=
METAR EDDW 132120Z 17013KT 9999 BKN012 04/02 Q0986 R88/290095 NOSIG=
METAR EDDW 132050Z 17013KT 9999 BKN011 04/02 Q0987 R88/290095 NOSIG=
METAR EDDW 132020Z 18014KT 9999 BKN010 04/03 Q0988 R88/290095 NOSIG=
METAR EDDW 131950Z 18012KT 9999 BKN008 04/03 Q0989 R88/290095 NOSIG=
METAR EDDW 131920Z 19012KT 9999 BKN008 04/03 Q0990 R88/290095 NOSIG=
__________________
Without deviation from the norm, progress is not possible. Frank Zappa
Gruss, Andreas | VATSIM Supervisor
Regelmässig aktuelle Fotos bei Instagram


Geändert von Andreas Fuchs (2017-12-14 um 15:10 Uhr)
Andreas Fuchs ist offline   Mit Zitat antworten
Alt 2017-12-14, 14:52   #3 (permalink)
 
Registriert seit: 2015-11-21
Ort: Penzberg
Beiträge: 125
Danke erteilt: 10
23 Danksagungen in 19 Beiträgen erhalten
Standard

Zitat:
Zitat von Andreas Fuchs Beitrag anzeigen
Hallo Bernhard,

eine Uhrzeit wäre noch gut.
Abflug LOWW 2015 lokal und Ankunft EDDW ca 21:20 lokal
__________________
Bernhard Zuerr ist offline   Mit Zitat antworten
Alt 2017-12-14, 15:11   #4 (permalink)
 
Benutzerbild von Andreas Fuchs
 
Registriert seit: 2002-05-29
Alter: 42
Beiträge: 16.992
Danke erteilt: 10.596
22.093 Danksagungen in 5.989 Beiträgen erhalten
Standard

Ok, habe die METARs gelöscht, die Deinen Flug gar nicht betreffen. Das VATSIM-Wetter war also näher an der Realität.
__________________
Without deviation from the norm, progress is not possible. Frank Zappa
Gruss, Andreas | VATSIM Supervisor
Regelmässig aktuelle Fotos bei Instagram

Andreas Fuchs ist offline   Mit Zitat antworten
Alt 2017-12-14, 15:16   #5 (permalink)
 
Registriert seit: 2015-11-21
Ort: Penzberg
Beiträge: 125
Danke erteilt: 10
23 Danksagungen in 19 Beiträgen erhalten
Standard

OK wo zieht dann ASN seine falschen Daten her?
__________________
Bernhard Zuerr ist offline   Mit Zitat antworten
Alt 2017-12-14, 18:05   #6 (permalink)
 
Benutzerbild von Andreas Fuchs
 
Registriert seit: 2002-05-29
Alter: 42
Beiträge: 16.992
Danke erteilt: 10.596
22.093 Danksagungen in 5.989 Beiträgen erhalten
Standard

Das müsstest Du die Leute von ASN fragen
__________________
Without deviation from the norm, progress is not possible. Frank Zappa
Gruss, Andreas | VATSIM Supervisor
Regelmässig aktuelle Fotos bei Instagram

Andreas Fuchs ist offline   Mit Zitat antworten
Alt 2017-12-14, 19:16   #7 (permalink)
 
Registriert seit: 2013-04-01
Beiträge: 85
Danke erteilt: 1
48 Danksagungen in 25 Beiträgen erhalten
Standard

Hab das gerade mal eben mit EDDT verglichen:
2017/12/14 17:50
EDDT 141750Z 24008KT 9999 SCT007 SCT013 BKN030 02/01 Q0992 NOSIG von http://tgftp.nws.noaa.gov/data/obser...tions/EDDT.TXT

METAR: EDDT 141750Z 24008KT 9999 SCT007 SCT013 BKN030 02/01 Q0992 NOSIG von http://www.allmetsat.com/de/metar-ta....php?icao=EDDT

ASN: EDDT 141750Z 24008KT 9999 SCT007 SCT013 BKN030 02/01 Q0992 NOSIG

alle absolut identisch.
Christian Klingbeil ist offline   Mit Zitat antworten
Alt 2017-12-14, 19:35   #8 (permalink)
VATSIM Germany PTD Deputy
 
Registriert seit: 2016-06-28
Ort: EDDH
Beiträge: 285
Danke erteilt: 211
266 Danksagungen in 168 Beiträgen erhalten
Standard

Eventuell stand dein Wetter in ASN auf historisch oder du hattest irgendwann mal irgendwas eigenes eingespeist und vergessen, dass du das getan hast?
Lars Bergmann ist offline   Mit Zitat antworten
Alt 2017-12-17, 18:39   #9 (permalink)
 
Registriert seit: 2015-11-21
Ort: Penzberg
Beiträge: 125
Danke erteilt: 10
23 Danksagungen in 19 Beiträgen erhalten
Standard

Uuups, tasache das ASN war auf Manuel. Keine Ahnung warum, ich nutze eigentlich immer den live Modus.

Danke für eure Hilfe.

Grüße Bernhard
__________________
Bernhard Zuerr ist offline   Mit Zitat antworten
Danksagungen
Alt 2017-12-19, 07:50   #10 (permalink)
 
Registriert seit: 2011-04-11
Beiträge: 209
Danke erteilt: 87
145 Danksagungen in 87 Beiträgen erhalten
Standard

ASN sollte eine Option bieten das VATSIM wetter zu verweden. Ansonsten werden ander Quellen verwendet die (hoffentlich nur leicht) abweichen können.
__________________
Mauro Gerber Leader Member - vACC Switzerland | www.vacc.ch

GLaDOS: I thought about our dilemma, and I came up with a solution that I honestly think works out best for one of both of us.
Mauro Gerber ist offline   Mit Zitat antworten
Antwort

  VATSIM Germany Forum > Flight Simulator > Prepar3D


Themen-Optionen
Ansicht

Forumregeln
Es ist dir nicht erlaubt, neue Themen zu verfassen.
Es ist dir nicht erlaubt, auf Beiträge zu antworten.
Es ist dir nicht erlaubt, Anhänge hochzuladen.
Es ist dir nicht erlaubt, deine Beiträge zu bearbeiten.

BB-Code ist an.
Smileys sind an.
[IMG] Code ist an.
HTML-Code ist aus.
Trackbacks are an
Pingbacks are an
Refbacks are an



Alle Zeitangaben in WEZ +2. Es ist jetzt 16:14 Uhr.


Powered by vBulletin® Version 3.8.4 (Deutsch)
Copyright ©2000 - 2018, Jelsoft Enterprises Ltd.
Template-Modifikationen durch TMS
© 2006 - 2018 vatsim-germany.org